Time;durP1;ratioP1;P1;durP2;ratioP2;P2;SDS_P1;SDS_P2;PMS_P1;PMS_P2;Temp;Humidity;BMP_temperature;BMP_pressure;BME280_temperature;BME280_humidity;BME280_pressure;Samples;Min_cycle;Max_cycle;Signal;HPM_P1;HPM_P2
2022/12/06 00:01:15;;;;;;;26.33;9.45;;;5.10;99.90;;;;;;4976014;28;20042;-76
2022/12/06 00:03:43;;;;;;;22.30;9.95;;;5.10;99.90;;;;;;4973059;28;20494;-76
2022/12/06 00:06:20;;;;;;;19.75;9.48;;;5.10;99.90;;;;;;4957212;28;20151;-76
2022/12/06 00:08:46;;;;;;;16.95;9.63;;;5.10;99.90;;;;;;4956780;28;20390;-77
2022/12/06 00:11:15;;;;;;;18.08;9.20;;;5.10;99.90;;;;;;4964456;28;20485;-77
2022/12/06 00:13:42;;;;;;;15.27;9.32;;;5.10;99.90;;;;;;4971826;28;20043;-77
2022/12/06 00:16:10;;;;;;;20.55;9.75;;;5.10;99.90;;;;;;4956761;28;20046;-77
2022/12/06 00:18:37;;;;;;;16.08;9.75;;;5.00;99.90;;;;;;4957086;28;20043;-77
2022/12/06 00:21:20;;;;;;;14.23;8.23;;;5.00;99.90;;;;;;4956927;28;20047;-77
2022/12/06 00:23:49;;;;;;;19.10;8.85;;;5.00;99.90;;;;;;4974434;28;20026;-77
2022/12/06 00:26:16;;;;;;;15.95;9.05;;;5.00;99.90;;;;;;4986182;28;20400;-77
2022/12/06 00:28:43;;;;;;;16.17;9.20;;;5.00;99.90;;;;;;4984123;28;20571;-77
2022/12/06 00:31:13;;;;;;;19.00;8.75;;;5.10;99.90;;;;;;4976059;28;20038;-77
2022/12/06 00:33:40;;;;;;;19.05;9.02;;;5.00;99.90;;;;;;4976218;28;20049;-77
2022/12/06 00:36:20;;;;;;;20.08;9.02;;;5.00;99.90;;;;;;4971975;28;20042;-77
2022/12/06 00:38:46;;;;;;;17.02;8.45;;;5.00;99.90;;;;;;4964240;28;20038;-77
2022/12/06 00:41:15;;;;;;;14.68;7.97;;;4.90;99.90;;;;;;4970911;28;20470;-77
2022/12/06 00:43:41;;;;;;;18.63;7.97;;;5.00;99.90;;;;;;4991756;28;20038;-77
2022/12/06 00:46:10;;;;;;;14.52;7.45;;;5.00;99.90;;;;;;4975831;28;20047;-77
2022/12/06 00:48:36;;;;;;;16.70;8.15;;;5.00;99.90;;;;;;4975445;28;20038;-76
2022/12/06 00:51:03;;;;;;;14.25;8.13;;;5.00;99.90;;;;;;4971841;28;20041;-78
2022/12/06 00:53:29;;;;;;;17.48;7.55;;;5.00;99.90;;;;;;4969606;28;20373;-78
2022/12/06 00:55:55;;;;;;;13.48;7.03;;;5.00;99.90;;;;;;4956026;28;20038;-77
2022/12/06 00:58:22;;;;;;;18.08;7.20;;;5.00;99.90;;;;;;4955906;28;20497;-77
2022/12/06 01:00:48;;;;;;;13.93;6.68;;;5.00;99.90;;;;;;4956195;28;20115;-77
2022/12/06 01:03:14;;;;;;;14.68;7.32;;;5.00;99.90;;;;;;4956083;28;20573;-77
2022/12/06 01:05:41;;;;;;;13.02;6.63;;;5.00;99.90;;;;;;4966822;28;20046;-77
2022/12/06 01:08:07;;;;;;;14.70;6.80;;;4.90;99.90;;;;;;4971875;28;20130;-77
2022/12/06 01:10:34;;;;;;;15.20;7.30;;;5.00;99.90;;;;;;4956523;28;20046;-78
2022/12/06 01:13:00;;;;;;;17.83;7.80;;;4.90;99.90;;;;;;4956090;28;20038;-77
2022/12/06 01:15:26;;;;;;;16.20;7.40;;;4.90;99.90;;;;;;4964659;28;20034;-77
2022/12/06 01:17:52;;;;;;;14.18;7.55;;;4.90;99.90;;;;;;4967581;28;20050;-77
2022/12/06 01:20:18;;;;;;;16.20;7.78;;;4.90;99.90;;;;;;4975001;28;20065;-77
2022/12/06 01:22:43;;;;;;;12.82;7.88;;;4.90;99.90;;;;;;4975301;28;20038;-77
2022/12/06 01:25:09;;;;;;;21.10;7.80;;;4.90;99.90;;;;;;4974872;28;20050;-77
2022/12/06 01:27:35;;;;;;;17.00;7.68;;;4.90;99.90;;;;;;4975127;28;20042;-77
2022/12/06 01:30:01;;;;;;;12.65;7.57;;;5.00;99.90;;;;;;4971677;28;20090;-77
2022/12/06 01:32:28;;;;;;;13.15;7.40;;;4.90;99.90;;;;;;4963658;28;20540;-77
2022/12/06 01:34:55;;;;;;;20.35;8.30;;;4.90;99.90;;;;;;4955941;28;20042;-77
2022/12/06 01:37:21;;;;;;;14.63;7.22;;;4.90;99.90;;;;;;4955224;28;20042;-77
2022/12/06 01:39:46;;;;;;;14.43;7.55;;;4.90;99.90;;;;;;4955743;28;20039;-77
2022/12/06 01:42:13;;;;;;;16.17;8.02;;;4.90;99.90;;;;;;4964770;28;20035;-77
2022/12/06 01:44:42;;;;;;;17.40;7.90;;;4.90;99.90;;;;;;4970563;28;20097;-77
2022/12/06 01:47:20;;;;;;;20.77;7.85;;;4.80;99.90;;;;;;4960659;28;20548;-77
2022/12/06 01:49:53;;;;;;;19.75;8.32;;;4.90;99.90;;;;;;4955589;28;20039;-77
2022/12/06 01:52:22;;;;;;;16.33;7.60;;;4.90;99.90;;;;;;4955673;28;20047;-77
2022/12/06 01:54:48;;;;;;;16.10;8.05;;;4.90;99.90;;;;;;4955827;28;20082;-77
2022/12/06 01:57:16;;;;;;;19.73;8.07;;;4.90;99.90;;;;;;4972857;28;20042;-77
2022/12/06 01:59:42;;;;;;;16.25;8.10;;;4.90;99.90;;;;;;4966214;28;20551;-77
2022/12/06 02:02:08;;;;;;;18.60;7.72;;;4.80;99.90;;;;;;4975383;28;20045;-77
2022/12/06 02:04:35;;;;;;;16.85;7.43;;;4.80;99.90;;;;;;4975317;28;20038;-77
2022/12/06 02:07:01;;;;;;;18.73;7.72;;;4.80;99.90;;;;;;4975101;28;20038;-77
2022/12/06 02:09:29;;;;;;;18.08;7.90;;;4.80;99.90;;;;;;4974536;28;20046;-77
2022/12/06 02:11:55;;;;;;;13.18;6.80;;;4.80;99.90;;;;;;4970834;28;20039;-76
2022/12/06 02:14:26;;;;;;;19.33;8.10;;;4.80;99.90;;;;;;4955230;28;20522;-77
2022/12/06 02:16:58;;;;;;;15.18;7.25;;;4.80;99.90;;;;;;4956386;28;20047;-77
2022/12/06 02:20:02;;;;;;;18.87;7.50;;;4.80;99.90;;;;;;4966483;28;20043;-77
2022/12/06 02:22:43;;;;;;;15.25;7.30;;;4.70;99.90;;;;;;4989305;28;20041;-77
2022/12/06 02:25:14;;;;;;;19.67;6.93;;;4.70;99.90;;;;;;4978235;28;20038;-77
2022/12/06 02:27:49;;;;;;;17.25;7.07;;;4.60;99.90;;;;;;4974877;28;20096;-77
2022/12/06 02:30:52;;;;;;;13.32;7.05;;;4.60;99.90;;;;;;4966909;28;20187;-77
2022/12/06 02:33:47;;;;;;;18.45;7.40;;;4.60;99.90;;;;;;4958536;28;20081;-77
2022/12/06 02:36:28;;;;;;;14.15;6.60;;;4.50;99.90;;;;;;4966792;28;20041;-77
2022/12/06 02:39:08;;;;;;;15.82;7.32;;;4.50;99.90;;;;;;4974923;28;20409;-76
2022/12/06 02:42:18;;;;;;;13.73;7.50;;;4.50;99.90;;;;;;4958485;28;20085;-77
2022/12/06 02:44:49;;;;;;;17.13;7.45;;;4.50;99.90;;;;;;4916683;29;20047;-76
2022/12/06 02:47:17;;;;;;;11.77;6.65;;;4.50;99.90;;;;;;4966330;28;20046;-76
2022/12/06 02:49:48;;;;;;;15.73;8.00;;;4.50;99.90;;;;;;4978264;28;20099;-77
2022/12/06 02:52:16;;;;;;;16.38;7.90;;;4.50;99.90;;;;;;4978279;28;20038;-77
2022/12/06 02:54:45;;;;;;;14.20;7.80;;;4.50;99.90;;;;;;4974571;28;20045;-77
2022/12/06 02:57:11;;;;;;;19.20;7.55;;;4.60;99.90;;;;;;4972276;28;20089;-77
2022/12/06 02:59:39;;;;;;;13.10;7.25;;;4.60;99.90;;;;;;4977833;28;20137;-77
2022/12/06 03:02:10;;;;;;;18.92;7.90;;;4.50;99.90;;;;;;4994078;28;20034;-77
2022/12/06 03:04:56;;;;;;;15.95;7.30;;;4.60;99.90;;;;;;4977688;28;20038;-77
2022/12/06 03:07:38;;;;;;;16.02;7.80;;;4.60;99.90;;;;;;4976951;28;20042;-77
2022/12/06 03:10:04;;;;;;;19.67;8.00;;;4.50;99.90;;;;;;4973460;28;20035;-77
2022/12/06 03:13:04;;;;;;;15.15;6.82;;;4.50;99.90;;;;;;4974812;28;20042;-77
2022/12/06 03:16:02;;;;;;;11.77;7.47;;;4.60;99.90;;;;;;4977227;28;20038;-77
2022/12/06 03:18:46;;;;;;;18.85;7.35;;;4.50;99.90;;;;;;4997587;28;20042;-77
2022/12/06 03:21:21;;;;;;;14.15;7.20;;;4.50;99.90;;;;;;4978550;28;20508;-77
2022/12/06 03:23:50;;;;;;;14.20;6.60;;;4.50;99.90;;;;;;4973940;28;20058;-77
2022/12/06 03:26:20;;;;;;;12.05;6.25;;;4.50;99.90;;;;;;4969639;28;20050;-77
2022/12/06 03:28:49;;;;;;;16.20;6.78;;;4.50;99.90;;;;;;4957888;28;20045;-77
2022/12/06 03:31:15;;;;;;;15.57;6.32;;;4.50;99.90;;;;;;4957868;28;20134;-77
2022/12/06 03:33:51;;;;;;;19.70;6.30;;;4.50;99.90;;;;;;4957721;28;20126;-77
2022/12/06 03:36:18;;;;;;;10.57;5.65;;;4.50;99.90;;;;;;4958028;28;20121;-77
2022/12/06 03:39:06;;;;;;;10.07;5.68;;;4.40;99.90;;;;;;4984429;28;20046;-77
2022/12/06 03:41:39;;;;;;;11.65;5.60;;;4.50;99.90;;;;;;4974475;28;20075;-77
2022/12/06 03:44:05;;;;;;;15.07;6.00;;;4.40;99.90;;;;;;4977213;28;20050;-77
2022/12/06 03:46:39;;;;;;;9.70;5.25;;;4.40;99.90;;;;;;4976887;28;20392;-77
2022/12/06 03:49:29;;;;;;;10.48;5.20;;;4.40;99.90;;;;;;4976831;28;20038;-77
2022/12/06 03:51:56;;;;;;;13.40;5.65;;;4.40;99.90;;;;;;4976442;28;20026;-77
2022/12/06 03:54:21;;;;;;;13.38;5.50;;;4.40;99.90;;;;;;4978878;28;20103;-77
2022/12/06 03:56:47;;;;;;;12.45;5.45;;;4.40;99.90;;;;;;4979397;28;20072;-77
2022/12/06 03:59:13;;;;;;;10.05;5.10;;;4.40;99.90;;;;;;4976382;28;20049;-77
2022/12/06 04:01:39;;;;;;;10.75;4.82;;;4.40;99.90;;;;;;4977485;28;20048;-78
2022/12/06 04:04:05;;;;;;;9.80;4.85;;;4.40;99.90;;;;;;4976822;28;20034;-78
2022/12/06 04:06:31;;;;;;;10.20;5.47;;;4.30;99.90;;;;;;4978315;28;20045;-78
2022/12/06 04:09:51;;;;;;;11.00;5.05;;;4.30;99.90;;;;;;4976326;28;20065;-78
2022/12/06 04:11:43;;;;;;;10.27;4.85;;;4.20;99.90;;;;;;4973842;28;20406;-78
2022/12/06 04:14:10;;;;;;;10.90;5.95;;;4.30;99.90;;;;;;4965333;28;20034;-78
2022/12/06 04:19:20;;;;;;;9.30;5.20;;;4.20;99.90;;;;;;4993167;28;20049;-77
2022/12/06 04:24:40;;;;;;;12.93;5.00;;;4.20;99.90;;;;;;4947001;28;20049;-78
2022/12/06 04:40:47;;;;;;;10.45;5.07;;;4.00;99.90;;;;;;4973490;28;20197;-77
2022/12/06 04:45:58;;;;;;;9.68;4.93;;;4.00;99.90;;;;;;4976099;28;20042;-78
2022/12/06 04:48:24;;;;;;;9.98;5.10;;;4.10;99.90;;;;;;4968730;28;20493;-77
2022/12/06 04:50:50;;;;;;;15.27;5.28;;;4.10;99.90;;;;;;4957698;28;20050;-77
2022/12/06 04:53:16;;;;;;;11.73;4.95;;;4.00;99.90;;;;;;4956616;28;20043;-77
2022/12/06 04:55:47;;;;;;;10.43;5.05;;;4.00;99.90;;;;;;4957444;28;20101;-77
2022/12/06 04:58:12;;;;;;;10.68;4.78;;;4.00;99.90;;;;;;4961066;28;20041;-77
2022/12/06 05:00:42;;;;;;;13.23;4.85;;;4.00;99.90;;;;;;4967681;28;20042;-77
2022/12/06 05:03:12;;;;;;;9.45;4.53;;;4.00;99.90;;;;;;4975949;28;20504;-77
2022/12/06 05:05:38;;;;;;;8.75;4.65;;;4.00;99.90;;;;;;4976006;28;20174;-78
2022/12/06 05:08:04;;;;;;;8.52;4.15;;;3.90;99.90;;;;;;4975614;28;20042;-77
2022/12/06 05:10:31;;;;;;;15.38;4.82;;;3.90;99.90;;;;;;4976345;28;20041;-78
2022/12/06 05:12:57;;;;;;;11.73;4.75;;;3.90;99.90;;;;;;4972191;28;20052;-77
2022/12/06 05:15:22;;;;;;;10.07;4.68;;;3.80;99.90;;;;;;4971911;28;20485;-78
2022/12/06 05:17:48;;;;;;;9.40;4.75;;;3.80;99.90;;;;;;4975907;28;20042;-77
2022/12/06 05:20:15;;;;;;;11.93;4.88;;;3.80;99.90;;;;;;4975718;28;20040;-77
2022/12/06 05:22:40;;;;;;;6.70;3.75;;;3.80;99.90;;;;;;4975438;28;20034;-77
2022/12/06 05:25:07;;;;;;;8.93;5.32;;;3.80;99.90;;;;;;4975690;28;20038;-78
2022/12/06 05:27:33;;;;;;;10.52;4.85;;;3.70;99.90;;;;;;4975236;28;20129;-77
2022/12/06 05:29:59;;;;;;;8.65;4.43;;;3.70;99.90;;;;;;4970846;28;20122;-78
2022/12/06 05:32:25;;;;;;;10.68;4.55;;;3.70;99.90;;;;;;4964031;28;20041;-78
2022/12/06 05:34:50;;;;;;;9.30;4.68;;;3.60;99.90;;;;;;4956290;28;20098;-77
2022/12/06 05:37:16;;;;;;;10.60;5.10;;;3.60;99.90;;;;;;4956006;28;20140;-77
2022/12/06 05:39:42;;;;;;;9.65;4.68;;;3.50;99.90;;;;;;4962687;28;20043;-77
2022/12/06 05:42:08;;;;;;;11.35;5.13;;;3.50;99.90;;;;;;4975614;28;20027;-78
2022/12/06 05:44:34;;;;;;;11.77;5.15;;;3.40;99.90;;;;;;4975605;28;20402;-77
2022/12/06 05:47:00;;;;;;;14.88;5.55;;;3.40;99.90;;;;;;4975142;28;20074;-77
2022/12/06 05:49:26;;;;;;;10.43;5.65;;;3.40;99.90;;;;;;4975125;28;20050;-77
2022/12/06 05:51:52;;;;;;;11.27;5.53;;;3.40;99.90;;;;;;4976520;28;20165;-77
2022/12/06 05:54:19;;;;;;;11.65;6.38;;;3.40;99.90;;;;;;4979146;28;20493;-77
2022/12/06 05:56:45;;;;;;;10.75;5.90;;;3.40;99.90;;;;;;4976394;28;20043;-77
2022/12/06 05:59:11;;;;;;;11.82;5.85;;;3.50;99.90;;;;;;4960004;28;20113;-77
2022/12/06 06:01:37;;;;;;;11.52;6.38;;;3.50;99.90;;;;;;4960302;28;20046;-77
2022/12/06 06:04:03;;;;;;;15.63;6.45;;;3.50;99.90;;;;;;4960347;28;20125;-78
2022/12/06 06:06:29;;;;;;;18.27;6.57;;;3.60;99.90;;;;;;4970725;28;20525;-77
2022/12/06 06:08:55;;;;;;;9.95;5.88;;;3.50;99.90;;;;;;4971995;28;20125;-77
2022/12/06 06:11:21;;;;;;;12.05;6.07;;;3.60;99.90;;;;;;4966824;28;20070;-77
2022/12/06 06:13:47;;;;;;;11.38;5.80;;;3.50;99.90;;;;;;4978508;28;20556;-78
2022/12/06 06:16:13;;;;;;;14.80;6.30;;;3.60;99.90;;;;;;4979022;28;20169;-78
2022/12/06 06:18:39;;;;;;;9.65;5.82;;;3.50;99.90;;;;;;4978703;28;20042;-77
2022/12/06 06:21:05;;;;;;;12.45;6.60;;;3.50;99.90;;;;;;4973697;28;20049;-78
2022/12/06 06:23:31;;;;;;;10.90;6.43;;;3.60;99.90;;;;;;4967711;28;20039;-78
2022/12/06 06:25:57;;;;;;;12.98;7.10;;;3.50;99.90;;;;;;4959553;28;20069;-77
2022/12/06 06:28:23;;;;;;;10.38;6.95;;;3.60;99.90;;;;;;4959085;28;20042;-78
2022/12/06 06:30:49;;;;;;;15.02;6.68;;;3.70;99.90;;;;;;4959349;28;20514;-77
2022/12/06 06:33:15;;;;;;;12.07;6.93;;;3.60;99.90;;;;;;4959646;28;20047;-77
2022/12/06 06:35:42;;;;;;;17.85;6.60;;;3.60;99.90;;;;;;4967945;28;20030;-77
2022/12/06 06:38:08;;;;;;;14.48;6.55;;;3.50;99.90;;;;;;4978251;28;20137;-77
2022/12/06 06:40:34;;;;;;;9.10;5.72;;;3.50;99.90;;;;;;4978701;28;20052;-77
2022/12/06 06:43:16;;;;;;;10.73;6.00;;;3.40;99.90;;;;;;4978751;28;20042;-77
2022/12/06 06:45:55;;;;;;;9.97;5.63;;;3.40;99.90;;;;;;4975161;28;20052;-78
2022/12/06 06:48:22;;;;;;;9.02;5.40;;;3.30;99.90;;;;;;4972754;28;20043;-76
2022/12/06 06:50:51;;;;;;;11.85;5.90;;;3.20;99.90;;;;;;4985851;28;20043;-79
2022/12/06 06:53:18;;;;;;;13.18;5.72;;;3.20;99.90;;;;;;4970059;28;20053;-80
2022/12/06 06:55:45;;;;;;;10.10;5.82;;;3.10;99.90;;;;;;4978292;28;20141;-79
2022/12/06 06:58:15;;;;;;;11.50;5.82;;;3.00;99.90;;;;;;4960333;28;20062;-78
2022/12/06 07:00:41;;;;;;;9.10;6.22;;;3.00;99.90;;;;;;4958911;28;20035;-77
2022/12/06 07:03:14;;;;;;;12.65;6.30;;;2.90;99.90;;;;;;4965987;28;20129;-77
2022/12/06 07:05:42;;;;;;;12.38;6.65;;;2.90;99.90;;;;;;4977803;28;20046;-78
2022/12/06 07:08:09;;;;;;;14.40;6.57;;;2.90;99.90;;;;;;4976175;28;20046;-79
2022/12/06 07:10:35;;;;;;;16.75;6.85;;;2.80;99.90;;;;;;4973351;28;20039;-79
2022/12/06 07:13:01;;;;;;;14.82;6.68;;;2.80;99.90;;;;;;4964326;28;20093;-79
2022/12/06 07:15:27;;;;;;;15.07;6.55;;;2.70;99.90;;;;;;4974695;28;20041;-79
2022/12/06 07:17:53;;;;;;;10.82;5.57;;;2.60;99.90;;;;;;4958431;28;20042;-79
2022/12/06 07:20:19;;;;;;;10.95;5.88;;;2.60;99.90;;;;;;4958457;28;20039;-79
2022/12/06 07:22:45;;;;;;;13.63;5.90;;;2.50;99.90;;;;;;4975350;28;20042;-79
2022/12/06 07:25:11;;;;;;;12.13;5.53;;;2.50;99.90;;;;;;4958198;28;20409;-79
2022/12/06 07:27:37;;;;;;;18.98;7.00;;;2.30;99.90;;;;;;4975915;28;20047;-79
2022/12/06 07:30:06;;;;;;;14.20;6.22;;;2.40;99.90;;;;;;4976569;28;20138;-80
2022/12/06 07:32:35;;;;;;;9.55;5.75;;;2.20;99.90;;;;;;4981846;28;20034;-79
2022/12/06 07:35:01;;;;;;;8.52;5.50;;;2.20;99.90;;;;;;4973023;28;20030;-80
2022/12/06 07:37:27;;;;;;;11.32;6.57;;;2.10;99.90;;;;;;4978965;28;20425;-80
2022/12/06 07:39:56;;;;;;;12.50;5.85;;;2.00;99.90;;;;;;4990771;28;20548;-80
2022/12/06 07:45:07;;;;;;;23.23;5.82;;;1.90;99.90;;;;;;4975258;28;20504;-80
2022/12/06 07:47:38;;;;;;;7.95;4.95;;;1.80;99.90;;;;;;4975683;28;20409;-80
2022/12/06 07:50:06;;;;;;;9.10;6.00;;;1.70;99.90;;;;;;4966446;28;20047;-80
2022/12/06 07:52:33;;;;;;;19.25;8.10;;;1.70;99.90;;;;;;4959518;28;20039;-80
2022/12/06 07:54:59;;;;;;;32.95;9.25;;;1.60;99.90;;;;;;4962926;28;20098;-80
2022/12/06 07:57:28;;;;;;;39.70;9.13;;;1.60;99.90;;;;;;4968923;28;20512;-80
2022/12/06 07:59:54;;;;;;;34.22;9.57;;;1.50;99.90;;;;;;4976930;28;20089;-80
2022/12/06 08:02:22;;;;;;;64.18;10.73;;;1.50;99.90;;;;;;4960492;28;20043;-80
2022/12/06 08:04:49;;;;;;;66.30;14.85;;;1.50;99.90;;;;;;4975147;28;20038;-80
2022/12/06 08:07:15;;;;;;;64.38;14.48;;;1.40;99.90;;;;;;4975587;28;20034;-80
2022/12/06 08:09:41;;;;;;;37.58;15.60;;;1.40;99.90;;;;;;4975283;28;20039;-79
2022/12/06 08:12:11;;;;;;;32.63;16.05;;;1.40;99.90;;;;;;4975298;28;20103;-80
2022/12/06 08:14:37;;;;;;;96.93;25.23;;;1.40;99.90;;;;;;4974071;28;20416;-80
2022/12/06 08:17:04;;;;;;;60.13;23.73;;;1.30;99.90;;;;;;4976670;28;20026;-80
2022/12/06 08:19:30;;;;;;;68.18;19.10;;;1.30;99.90;;;;;;4964545;28;20042;-80
2022/12/06 08:21:56;;;;;;;101.03;21.90;;;1.30;99.90;;;;;;4976146;28;20049;-80
2022/12/06 08:24:22;;;;;;;38.47;17.35;;;1.30;99.90;;;;;;4960807;28;20050;-80
2022/12/06 08:26:51;;;;;;;31.88;14.52;;;1.30;99.90;;;;;;4967980;28;20042;-80
2022/12/06 08:29:17;;;;;;;53.10;12.85;;;1.20;99.90;;;;;;4966643;28;20039;-80
2022/12/06 08:31:46;;;;;;;75.53;13.65;;;1.30;99.90;;;;;;4968130;28;20093;-80
2022/12/06 08:34:13;;;;;;;16.83;9.10;;;1.20;99.90;;;;;;4973713;28;20076;-80
2022/12/06 08:36:39;;;;;;;15.98;8.38;;;1.30;99.90;;;;;;4959669;28;20382;-80
2022/12/06 08:39:08;;;;;;;12.18;7.68;;;1.20;99.90;;;;;;4959098;28;20498;-80
2022/12/06 08:44:19;;;;;;;16.35;8.65;;;1.50;99.90;;;;;;4975445;28;20047;-79
2022/12/06 08:46:45;;;;;;;24.38;11.30;;;1.40;99.90;;;;;;4964061;28;20046;-79
2022/12/06 08:49:12;;;;;;;21.85;11.77;;;1.50;99.90;;;;;;4974778;28;20039;-80
2022/12/06 08:51:41;;;;;;;26.40;12.38;;;1.50;99.90;;;;;;4958880;28;20383;-80
2022/12/06 08:54:10;;;;;;;22.65;12.10;;;1.60;99.90;;;;;;4958878;28;20038;-80
2022/12/06 08:56:36;;;;;;;28.58;12.50;;;1.60;99.90;;;;;;4967824;28;20504;-80
2022/12/06 08:59:02;;;;;;;20.52;10.82;;;1.70;99.90;;;;;;4971874;28;20053;-79
2022/12/06 09:01:37;;;;;;;26.50;11.38;;;1.90;99.90;;;;;;4974748;28;20045;-78
2022/12/06 09:04:04;;;;;;;16.80;8.68;;;1.90;99.90;;;;;;4975250;28;20044;-77
2022/12/06 09:06:48;;;;;;;24.15;9.65;;;2.00;99.90;;;;;;4967130;28;20042;-78
2022/12/06 09:09:23;;;;;;;25.48;9.05;;;2.10;99.90;;;;;;4958413;28;20074;-78
2022/12/06 09:12:06;;;;;;;19.30;7.88;;;2.10;99.90;;;;;;4975858;28;20108;-78
2022/12/06 09:14:32;;;;;;;11.10;7.07;;;2.20;99.90;;;;;;4958897;28;20050;-78
2022/12/06 09:17:00;;;;;;;17.02;8.00;;;2.30;99.90;;;;;;4959480;28;20047;-78
2022/12/06 09:19:25;;;;;;;27.65;9.45;;;2.40;99.90;;;;;;4957909;28;20070;-78
2022/12/06 09:21:51;;;;;;;15.05;8.35;;;2.60;99.90;;;;;;4965580;28;20070;-78
2022/12/06 09:24:17;;;;;;;13.18;7.93;;;2.80;99.90;;;;;;4973075;28;20050;-78
2022/12/06 09:26:43;;;;;;;14.88;7.75;;;3.00;99.90;;;;;;4967619;28;20405;-78
2022/12/06 09:29:10;;;;;;;16.50;8.82;;;3.10;99.90;;;;;;4958089;28;20046;-78
2022/12/06 09:31:38;;;;;;;22.92;8.95;;;3.20;99.90;;;;;;4958371;28;20092;-78
2022/12/06 09:34:06;;;;;;;29.77;9.82;;;3.30;99.90;;;;;;4958624;28;20093;-78
2022/12/06 09:36:31;;;;;;;15.95;8.65;;;3.40;99.90;;;;;;4958052;28;20061;-77
2022/12/06 09:39:06;;;;;;;19.83;8.82;;;3.50;99.90;;;;;;4976196;28;20053;-78
2022/12/06 09:42:03;;;;;;;13.60;7.22;;;3.60;99.90;;;;;;4977576;28;20046;-78
2022/12/06 09:44:47;;;;;;;11.90;6.50;;;3.70;99.90;;;;;;4967544;28;20049;-77
2022/12/06 09:47:21;;;;;;;24.60;10.05;;;3.80;99.90;;;;;;4983224;28;21871;-78
2022/12/06 09:49:58;;;;;;;13.18;7.22;;;3.90;99.90;;;;;;4978526;28;20035;-78
2022/12/06 09:52:43;;;;;;;15.02;7.47;;;4.00;99.90;;;;;;4991571;28;20042;-78
2022/12/06 09:55:20;;;;;;;14.15;7.22;;;4.10;99.90;;;;;;4959199;28;20085;-78
2022/12/06 09:57:49;;;;;;;15.90;6.60;;;4.20;99.90;;;;;;4970893;28;20039;-78
2022/12/06 10:00:21;;;;;;;10.90;6.32;;;4.40;99.90;;;;;;4978242;28;20050;-78
2022/12/06 10:03:17;;;;;;;12.63;6.13;;;4.50;99.90;;;;;;4963257;28;20481;-77
2022/12/06 10:06:04;;;;;;;16.30;5.93;;;4.60;99.90;;;;;;4960460;28;20277;-78
2022/12/06 10:08:41;;;;;;;11.95;5.25;;;4.70;99.90;;;;;;4973984;28;20035;-78
2022/12/06 10:11:34;;;;;;;7.13;4.47;;;4.80;99.90;;;;;;4971650;28;20133;-78
2022/12/06 10:14:33;;;;;;;9.50;5.03;;;5.00;99.90;;;;;;4981286;28;20035;-77
2022/12/06 10:17:11;;;;;;;10.30;5.35;;;5.10;99.90;;;;;;4957211;28;20047;-77
2022/12/06 10:19:57;;;;;;;16.45;5.35;;;5.20;99.90;;;;;;4970572;28;20039;-77
2022/12/06 10:22:49;;;;;;;7.22;4.43;;;5.30;99.90;;;;;;4971733;28;20045;-77
2022/12/06 10:25:24;;;;;;;10.52;5.00;;;5.20;99.90;;;;;;4973045;28;20049;-78
2022/12/06 10:27:56;;;;;;;8.30;4.53;;;5.20;99.90;;;;;;4959754;28;20437;-77
2022/12/06 10:30:21;;;;;;;9.23;4.28;;;5.20;99.90;;;;;;4966473;28;20039;-78
2022/12/06 10:33:25;;;;;;;9.20;4.82;;;5.10;99.90;;;;;;4955446;28;20035;-77
2022/12/06 10:36:04;;;;;;;7.43;4.60;;;5.10;99.90;;;;;;4959424;28;20042;-77
2022/12/06 10:38:43;;;;;;;6.57;4.57;;;5.10;99.90;;;;;;4974590;28;20125;-78
2022/12/06 10:41:25;;;;;;;8.88;4.40;;;5.10;99.90;;;;;;4965093;28;20046;-79
2022/12/06 10:44:24;;;;;;;6.87;3.83;;;5.00;99.90;;;;;;4975370;28;20459;-79
2022/12/06 10:47:28;;;;;;;8.73;4.80;;;5.00;99.90;;;;;;4970353;28;20525;-78
2022/12/06 10:50:12;;;;;;;7.75;4.40;;;5.00;99.90;;;;;;4957619;28;20086;-79
2022/12/06 10:52:41;;;;;;;6.30;4.53;;;5.00;99.90;;;;;;4974019;28;20445;-79
2022/12/06 10:55:10;;;;;;;8.68;4.25;;;5.00;99.90;;;;;;4976836;28;20046;-78
2022/12/06 10:57:51;;;;;;;7.53;4.30;;;5.00;99.90;;;;;;4969844;28;20100;-80
2022/12/06 11:00:19;;;;;;;8.23;3.97;;;5.10;99.90;;;;;;4958769;28;20133;-79
2022/12/06 11:03:18;;;;;;;6.38;4.30;;;5.00;99.90;;;;;;4969174;28;20074;-79
2022/12/06 11:05:47;;;;;;;7.20;4.50;;;5.10;99.90;;;;;;4954775;28;20058;-78
2022/12/06 11:08:25;;;;;;;8.60;4.82;;;5.20;99.90;;;;;;4957876;28;20054;-79
2022/12/06 11:10:53;;;;;;;9.93;4.60;;;5.40;99.90;;;;;;4958844;28;20047;-79
2022/12/06 11:13:37;;;;;;;7.60;3.80;;;5.60;99.90;;;;;;4958524;28;20046;-79
2022/12/06 11:16:10;;;;;;;5.97;3.90;;;5.80;99.90;;;;;;4964936;28;20077;-79
2022/12/06 11:18:39;;;;;;;6.68;4.03;;;5.90;99.90;;;;;;4976047;28;20039;-79
2022/12/06 11:21:19;;;;;;;6.80;3.70;;;6.00;99.90;;;;;;4966281;28;20046;-79
2022/12/06 11:24:08;;;;;;;5.88;3.88;;;6.00;99.90;;;;;;4961693;28;20043;-79
2022/12/06 11:26:46;;;;;;;10.55;4.50;;;5.90;99.90;;;;;;4968291;28;20137;-79
2022/12/06 11:29:13;;;;;;;7.47;4.50;;;5.90;99.90;;;;;;4974534;28;20489;-78
2022/12/06 11:31:54;;;;;;;7.32;4.38;;;5.90;99.90;;;;;;4972219;28;20050;-77
2022/12/06 11:34:43;;;;;;;7.57;4.43;;;6.10;99.90;;;;;;4968432;28;20118;-78
2022/12/06 11:37:21;;;;;;;7.93;4.20;;;6.40;99.90;;;;;;4973031;28;20501;-76
2022/12/06 11:39:49;;;;;;;5.53;3.25;;;6.80;99.90;;;;;;4972646;28;20039;-77
2022/12/06 11:42:25;;;;;;;6.75;3.50;;;7.00;99.90;;;;;;4989569;28;20039;-76
2022/12/06 11:44:56;;;;;;;6.70;2.65;;;7.20;99.90;;;;;;4973831;28;20049;-76
2022/12/06 11:47:22;;;;;;;4.50;2.78;;;7.30;99.90;;;;;;4968781;28;20049;-76
2022/12/06 11:49:51;;;;;;;4.30;2.47;;;7.40;99.90;;;;;;4972104;28;20039;-76
2022/12/06 11:52:27;;;;;;;3.67;2.60;;;7.30;99.90;;;;;;4962067;28;20481;-76
2022/12/06 11:55:14;;;;;;;7.20;3.15;;;7.30;99.90;;;;;;4970233;28;20034;-77
2022/12/06 11:58:05;;;;;;;4.25;2.40;;;7.20;99.90;;;;;;4972367;28;20101;-77
2022/12/06 12:00:31;;;;;;;4.05;2.50;;;7.20;99.90;;;;;;4967495;28;20101;-77
2022/12/06 12:02:57;;;;;;;5.32;2.58;;;7.10;99.90;;;;;;4957337;28;20046;-76
2022/12/06 12:05:29;;;;;;;3.80;2.00;;;7.00;99.90;;;;;;4980935;28;20489;-77
2022/12/06 12:08:00;;;;;;;3.90;2.53;;;7.00;99.90;;;;;;4976008;28;20172;-77
2022/12/06 12:10:37;;;;;;;6.05;2.60;;;7.10;99.90;;;;;;4973607;28;20085;-77
2022/12/06 12:16:14;;;;;;;4.55;2.53;;;7.00;99.90;;;;;;4987533;28;20035;-78
2022/12/06 12:19:03;;;;;;;3.55;3.08;;;7.00;99.90;;;;;;4977466;28;20042;-79
2022/12/06 12:21:34;;;;;;;5.90;3.20;;;6.90;99.90;;;;;;4970483;28;20039;-80
2022/12/06 12:24:01;;;;;;;5.65;3.40;;;6.90;99.90;;;;;;4964867;28;20041;-80
2022/12/06 12:26:38;;;;;;;8.82;4.15;;;6.90;99.90;;;;;;4966105;28;20046;-80
2022/12/06 12:29:07;;;;;;;8.68;3.45;;;6.90;99.90;;;;;;4974613;28;20089;-80
2022/12/06 12:31:53;;;;;;;5.43;2.67;;;6.90;99.90;;;;;;4974610;28;20556;-80
2022/12/06 12:34:22;;;;;;;5.63;2.08;;;6.80;99.90;;;;;;4958361;28;20042;-80
2022/12/06 12:36:51;;;;;;;5.72;2.28;;;6.70;99.90;;;;;;4958461;28;20047;-80
2022/12/06 12:39:32;;;;;;;3.92;2.33;;;6.70;99.90;;;;;;4978597;28;20046;-80
2022/12/06 12:41:59;;;;;;;5.50;2.58;;;6.60;99.90;;;;;;4966611;28;20078;-80
2022/12/06 12:44:40;;;;;;;5.13;2.22;;;6.60;99.90;;;;;;4969300;28;20046;-81
2022/12/06 12:47:19;;;;;;;4.03;2.40;;;6.70;99.90;;;;;;4982368;28;20039;-80
2022/12/06 12:50:06;;;;;;;5.50;2.42;;;6.70;99.90;;;;;;4983740;28;20042;-80
2022/12/06 12:52:41;;;;;;;3.75;2.13;;;6.70;99.90;;;;;;4968570;28;20144;-80
2022/12/06 12:55:15;;;;;;;6.65;2.63;;;6.70;99.90;;;;;;4983077;28;20057;-80
2022/12/06 12:57:53;;;;;;;6.20;3.28;;;6.70;99.90;;;;;;4999213;28;20049;-80
2022/12/06 13:00:23;;;;;;;4.05;2.67;;;6.70;99.90;;;;;;4965382;28;20082;-80
2022/12/06 13:03:01;;;;;;;6.13;2.55;;;6.80;99.90;;;;;;4967391;28;20038;-79
2022/12/06 13:05:33;;;;;;;5.03;2.28;;;6.90;99.90;;;;;;4960088;28;20041;-79
2022/12/06 13:08:21;;;;;;;5.95;2.80;;;7.00;99.90;;;;;;4972649;28;20038;-80
2022/12/06 13:11:10;;;;;;;3.92;2.38;;;7.00;99.90;;;;;;4978546;28;20141;-80
2022/12/06 13:14:00;;;;;;;6.85;2.55;;;7.00;99.90;;;;;;4978589;28;20038;-77
2022/12/06 13:16:34;;;;;;;6.90;2.50;;;7.10;99.90;;;;;;4961263;28;20061;-78
2022/12/06 13:19:01;;;;;;;4.55;2.58;;;7.10;99.90;;;;;;4971070;28;20573;-77
2022/12/06 13:21:36;;;;;;;6.05;2.90;;;7.10;99.90;;;;;;4956048;28;20088;-78
2022/12/06 13:24:10;;;;;;;7.03;2.75;;;7.10;99.90;;;;;;4956107;28;20461;-77
2022/12/06 13:26:43;;;;;;;4.75;2.40;;;7.10;99.90;;;;;;4961044;28;20050;-76
2022/12/06 13:29:33;;;;;;;6.00;2.47;;;7.10;99.90;;;;;;4978769;28;20039;-77
2022/12/06 13:32:07;;;;;;;4.05;2.45;;;7.10;99.90;;;;;;4960474;28;20039;-77
2022/12/06 13:34:43;;;;;;;4.78;2.40;;;7.10;99.90;;;;;;4964126;28;20549;-77
2022/12/06 13:37:42;;;;;;;6.20;2.85;;;7.20;99.90;;;;;;4970359;28;20043;-78
2022/12/06 13:40:34;;;;;;;5.75;3.42;;;7.10;99.90;;;;;;4951401;28;20046;-77
2022/12/06 13:43:05;;;;;;;6.53;2.33;;;7.10;99.90;;;;;;4979187;28;20038;-78
2022/12/06 13:45:44;;;;;;;4.28;2.30;;;7.00;99.90;;;;;;4969735;28;20469;-77